createdAt,value
2023-02-22T00:01:33.653Z,42.47
2023-02-22T00:04:06.425Z,41.60
2023-02-22T00:06:36.552Z,40.77
2023-02-22T00:09:03.884Z,47.73
2023-02-22T00:11:35.558Z,42.83
2023-02-22T00:14:02.681Z,42.57
2023-02-22T00:16:34.441Z,42.20
2023-02-22T00:19:01.587Z,42.57
2023-02-22T00:21:31.125Z,45.70
2023-02-22T00:23:58.272Z,49.20
2023-02-22T00:26:25.406Z,46.90
2023-02-22T00:28:53.962Z,39.60
2023-02-22T00:31:26.632Z,42.33
2023-02-22T00:33:53.786Z,39.97
2023-02-22T00:36:20.860Z,40.23
2023-02-22T00:38:50.056Z,38.60
2023-02-22T00:41:19.609Z,39.13
2023-02-22T00:43:48.958Z,36.83
2023-02-22T00:46:20.665Z,38.23
2023-02-22T00:48:50.103Z,37.63
2023-02-22T00:51:19.416Z,35.87
2023-02-22T00:53:48.727Z,33.47
2023-02-22T00:56:18.596Z,33.40
2023-02-22T00:58:48.259Z,32.53
2023-02-22T01:01:15.699Z,29.53
2023-02-22T01:03:43.055Z,31.97
2023-02-22T01:06:12.300Z,33.37
2023-02-22T01:08:47.486Z,29.07
2023-02-22T01:11:16.609Z,29.60
2023-02-22T01:13:54.140Z,33.97
2023-02-22T01:16:26.168Z,31.53
2023-02-22T01:18:55.786Z,31.70
2023-02-22T01:21:24.979Z,34.17
2023-02-22T01:23:55.104Z,31.73
2023-02-22T01:26:24.566Z,34.03
2023-02-22T01:28:51.691Z,30.97
2023-02-22T01:31:21.139Z,32.00
2023-02-22T01:33:53.690Z,33.10
2023-02-22T01:36:23.372Z,31.20
2023-02-22T01:38:53.234Z,27.33
2023-02-22T01:41:23.040Z,27.00
2023-02-22T01:43:50.139Z,28.50
2023-02-22T01:46:23.972Z,28.63
2023-02-22T01:48:56.022Z,27.87
2023-02-22T01:51:28.424Z,28.63
2023-02-22T01:53:57.219Z,28.80
2023-02-22T01:56:26.676Z,25.63
2023-02-22T01:59:07.872Z,28.80
2023-02-22T02:01:42.959Z,27.27
2023-02-22T02:04:19.296Z,24.13
2023-02-22T02:06:52.993Z,27.77
2023-02-22T02:09:50.524Z,28.87
2023-02-22T02:12:19.835Z,23.80
2023-02-22T02:14:47.323Z,22.30
2023-02-22T02:17:18.333Z,24.23
2023-02-22T02:20:25.019Z,20.77
2023-02-22T02:23:14.819Z,22.40
2023-02-22T02:26:11.016Z,23.83
2023-02-22T02:29:06.944Z,22.47
2023-02-22T02:31:36.534Z,29.30
2023-02-22T02:34:21.912Z,21.30
2023-02-22T02:37:07.164Z,21.07
2023-02-22T02:39:41.463Z,21.70
2023-02-22T02:42:20.300Z,21.97
2023-02-22T02:45:03.603Z,21.67
2023-02-22T02:47:37.208Z,22.00
2023-02-22T02:50:11.504Z,22.13
2023-02-22T02:52:40.893Z,19.53
2023-02-22T02:55:13.765Z,20.17
2023-02-22T02:57:40.850Z,21.03
2023-02-22T03:00:23.987Z,18.63
2023-02-22T03:03:17.730Z,17.90
2023-02-22T03:06:09.705Z,17.70
2023-02-22T03:08:58.152Z,19.20
2023-02-22T03:11:29.320Z,18.87
2023-02-22T03:14:25.353Z,18.20
2023-02-22T03:17:09.521Z,18.07
2023-02-22T03:19:44.155Z,19.83
2023-02-22T03:22:28.547Z,20.37
2023-02-22T03:25:07.149Z,20.70
2023-02-22T03:27:43.600Z,18.73
2023-02-22T03:30:24.844Z,23.57
2023-02-22T03:32:58.593Z,20.20
2023-02-22T03:35:31.223Z,18.77
2023-02-22T03:38:02.214Z,19.07
2023-02-22T03:40:38.880Z,18.43
2023-02-22T03:43:09.979Z,19.43
2023-02-22T03:45:43.414Z,18.93
2023-02-22T03:48:23.069Z,19.90
2023-02-22T03:50:53.289Z,18.87
2023-02-22T03:53:23.240Z,18.07
2023-02-22T03:55:55.561Z,20.40
2023-02-22T03:58:24.240Z,19.23
2023-02-22T04:00:53.305Z,18.87
2023-02-22T04:03:23.813Z,20.07
2023-02-22T04:05:53.400Z,19.10
2023-02-22T04:08:22.834Z,18.87
2023-02-22T04:10:49.985Z,20.23
2023-02-22T04:13:19.309Z,21.23
2023-02-22T04:15:46.523Z,19.33
2023-02-22T04:18:14.238Z,18.43
2023-02-22T04:20:41.466Z,19.27
2023-02-22T04:23:10.887Z,18.03
2023-02-22T04:25:42.825Z,16.43
2023-02-22T04:28:16.874Z,14.30
2023-02-22T04:30:44.147Z,14.70
2023-02-22T04:33:16.773Z,13.43
2023-02-22T04:35:46.594Z,11.93
2023-02-22T04:38:13.732Z,14.13
2023-02-22T04:40:43.102Z,11.80
2023-02-22T04:43:10.269Z,13.80
2023-02-22T04:45:39.890Z,12.30
2023-02-22T04:48:09.215Z,12.23
2023-02-22T04:50:36.420Z,11.60
2023-02-22T04:53:03.684Z,10.63
2023-02-22T04:55:34.941Z,11.93
2023-02-22T04:58:04.584Z,13.63
2023-02-22T05:00:31.713Z,11.10
2023-02-22T05:02:58.866Z,12.47
2023-02-22T05:05:28.532Z,13.20
2023-02-22T05:07:57.634Z,10.60
2023-02-22T05:10:27.334Z,11.87
2023-02-22T05:12:58.788Z,12.23
2023-02-22T05:15:25.979Z,11.67
2023-02-22T05:17:55.653Z,12.73
2023-02-22T05:20:31.617Z,11.53
2023-02-22T05:23:02.303Z,11.53
2023-02-22T05:25:34.545Z,12.53
2023-02-22T05:28:10.883Z,12.00
2023-02-22T05:30:40.893Z,11.97
2023-02-22T05:33:10.879Z,10.83
2023-02-22T05:35:43.793Z,11.67
2023-02-22T05:38:15.062Z,12.67
2023-02-22T05:40:44.777Z,11.07
2023-02-22T05:43:11.867Z,12.70
2023-02-22T05:45:38.988Z,11.17
2023-02-22T05:48:08.916Z,11.80
2023-02-22T05:50:35.988Z,10.87
2023-02-22T05:53:05.795Z,10.53
2023-02-22T05:55:37.575Z,10.67
2023-02-22T05:58:05.944Z,11.60
2023-02-22T06:00:33.274Z,11.40
2023-02-22T06:03:08.110Z,10.63
2023-02-22T06:05:38.854Z,9.33
2023-02-22T06:08:09.800Z,10.83
2023-02-22T06:10:42.000Z,10.43
2023-02-22T06:13:09.487Z,9.37
2023-02-22T06:15:36.636Z,9.70
2023-02-22T06:18:03.936Z,11.77
2023-02-22T06:20:35.690Z,9.23
2023-02-22T06:23:04.929Z,9.53
2023-02-22T06:25:34.667Z,11.90
2023-02-22T06:28:02.211Z,9.80
2023-02-22T06:30:30.463Z,10.87
2023-02-22T06:32:57.997Z,10.57
2023-02-22T06:35:27.364Z,11.03
2023-02-22T06:37:58.842Z,11.33
2023-02-22T06:40:29.514Z,9.57
2023-02-22T06:42:58.067Z,14.50
2023-02-22T06:45:27.825Z,10.67
2023-02-22T06:47:59.709Z,11.60
2023-02-22T06:50:29.281Z,11.40
2023-02-22T06:52:59.565Z,10.37
2023-02-22T06:55:31.810Z,11.13
2023-02-22T06:58:05.025Z,11.63
2023-02-22T07:00:35.108Z,10.93
2023-02-22T07:03:04.698Z,10.73
2023-02-22T07:05:31.897Z,10.70
2023-02-22T07:08:06.726Z,10.47
2023-02-22T07:10:39.924Z,10.20
2023-02-22T07:13:08.675Z,10.70
2023-02-22T07:15:36.452Z,12.40
2023-02-22T07:18:07.384Z,12.33
2023-02-22T07:20:34.629Z,11.30
2023-02-22T07:23:06.883Z,14.47
2023-02-22T07:25:34.227Z,10.60
2023-02-22T07:28:03.701Z,11.83
2023-02-22T07:30:34.220Z,12.17
2023-02-22T07:33:10.068Z,11.03
2023-02-22T07:35:48.435Z,12.13
2023-02-22T07:38:19.980Z,13.43
2023-02-22T07:40:49.786Z,11.30
2023-02-22T07:43:24.552Z,12.07
2023-02-22T07:45:56.485Z,12.73
2023-02-22T07:48:25.669Z,12.47
2023-02-22T07:51:00.525Z,12.60
2023-02-22T07:53:34.005Z,14.57
2023-02-22T07:56:08.915Z,12.80
2023-02-22T07:58:39.177Z,16.60
2023-02-22T08:01:08.748Z,13.67
2023-02-22T08:03:38.584Z,16.27
2023-02-22T08:06:09.242Z,13.67
2023-02-22T08:08:36.463Z,11.07
2023-02-22T08:11:04.085Z,12.83
2023-02-22T08:13:31.366Z,10.90
2023-02-22T08:15:58.793Z,16.87
2023-02-22T08:18:28.085Z,16.60
2023-02-22T08:20:55.510Z,29.57
2023-02-22T08:23:28.986Z,16.80
2023-02-22T08:26:08.248Z,13.37
2023-02-22T08:28:37.847Z,14.57
2023-02-22T08:31:07.745Z,13.67
2023-02-22T08:33:37.485Z,11.90
2023-02-22T08:36:05.289Z,12.73
2023-02-22T08:38:35.058Z,11.97
2023-02-22T08:41:02.221Z,13.23
2023-02-22T08:43:29.382Z,16.37
2023-02-22T08:45:58.956Z,14.43
2023-02-22T08:48:26.292Z,24.30
2023-02-22T08:50:53.583Z,13.67
2023-02-22T08:53:24.987Z,13.60
2023-02-22T08:55:55.531Z,12.40
2023-02-22T08:58:27.167Z,12.53
2023-02-22T09:00:58.674Z,13.17
2023-02-22T09:03:28.344Z,14.07
2023-02-22T09:05:55.855Z,15.50
2023-02-22T09:08:25.216Z,11.33
2023-02-22T09:10:52.503Z,16.60
2023-02-22T09:13:19.752Z,12.33
2023-02-22T09:15:46.853Z,12.60
2023-02-22T09:18:14.754Z,12.80
2023-02-22T09:20:42.368Z,11.87
2023-02-22T09:23:10.073Z,15.70
2023-02-22T09:25:38.870Z,12.47
2023-02-22T09:28:06.261Z,13.30
2023-02-22T09:30:35.147Z,14.93
2023-02-22T09:33:10.171Z,12.80
2023-02-22T09:35:46.571Z,11.20
2023-02-22T09:38:18.901Z,13.17
2023-02-22T09:41:14.553Z,11.87
2023-02-22T09:44:15.470Z,13.30
2023-02-22T09:46:45.810Z,14.67
2023-02-22T09:49:19.440Z,14.77
2023-02-22T09:52:08.055Z,18.87
2023-02-22T09:54:43.450Z,15.83
2023-02-22T09:57:20.698Z,17.33
2023-02-22T10:00:32.519Z,15.13
2023-02-22T10:03:21.350Z,16.10
2023-02-22T10:06:09.205Z,17.93
2023-02-22T10:08:41.910Z,13.57
2023-02-22T10:11:29.600Z,17.27
2023-02-22T10:14:14.570Z,14.03
2023-02-22T10:16:49.963Z,13.83
2023-02-22T10:19:43.893Z,12.93
2023-02-22T10:22:37.452Z,13.37
2023-02-22T10:25:12.978Z,14.27
2023-02-22T10:27:44.959Z,17.77
2023-02-22T10:30:25.120Z,13.50
2023-02-22T10:33:17.159Z,14.00
2023-02-22T10:35:46.935Z,16.93
2023-02-22T10:38:17.321Z,14.27
2023-02-22T10:41:10.287Z,17.57
2023-02-22T10:43:43.161Z,16.07
2023-02-22T10:46:17.066Z,14.97
2023-02-22T10:48:49.858Z,14.87
2023-02-22T10:51:17.245Z,16.40
2023-02-22T10:54:01.439Z,17.13
2023-02-22T10:56:30.915Z,17.60
2023-02-22T10:59:06.045Z,21.43
2023-02-22T11:01:33.249Z,20.37
2023-02-22T11:04:34.607Z,22.07
2023-02-22T11:07:01.795Z,19.17
2023-02-22T11:09:31.429Z,19.40
2023-02-22T11:12:30.471Z,17.20
2023-02-22T11:15:00.678Z,20.80
2023-02-22T11:17:34.429Z,20.87
2023-02-22T11:20:01.759Z,18.77
2023-02-22T11:22:42.119Z,15.17
2023-02-22T11:25:21.965Z,19.27
2023-02-22T11:27:59.985Z,17.33
2023-02-22T11:30:35.519Z,18.83
2023-02-22T11:33:24.114Z,19.60
2023-02-22T11:35:59.660Z,19.03
2023-02-22T11:38:39.522Z,17.63
2023-02-22T11:41:16.710Z,16.50
2023-02-22T11:43:49.361Z,17.13
2023-02-22T11:46:26.274Z,17.87
2023-02-22T11:49:00.943Z,15.67
2023-02-22T11:51:33.176Z,17.93
2023-02-22T11:54:28.814Z,16.93
2023-02-22T11:57:23.128Z,18.07
2023-02-22T12:00:16.599Z,19.27
2023-02-22T12:03:08.331Z,19.83
2023-02-22T12:06:07.172Z,16.53
2023-02-22T12:09:02.033Z,17.43
2023-02-22T12:11:50.905Z,21.03
2023-02-22T12:14:38.293Z,19.83
2023-02-22T12:17:39.006Z,19.43
2023-02-22T12:20:12.866Z,18.50
2023-02-22T12:22:53.505Z,19.13
2023-02-22T12:25:29.729Z,19.37
2023-02-22T12:28:24.818Z,20.30
2023-02-22T12:31:23.404Z,20.50
2023-02-22T12:34:09.817Z,19.93
2023-02-22T12:36:46.705Z,25.73
2023-02-22T12:39:58.647Z,21.90
2023-02-22T12:42:31.670Z,20.00
2023-02-22T12:45:10.395Z,20.87
2023-02-22T12:47:47.740Z,25.07
2023-02-22T12:50:28.562Z,24.47
2023-02-22T12:53:16.971Z,19.73
2023-02-22T12:56:00.440Z,25.60
2023-02-22T12:58:37.101Z,21.60
2023-02-22T13:01:20.099Z,21.03
2023-02-22T13:03:49.209Z,23.90
2023-02-22T13:06:42.852Z,25.43
2023-02-22T13:09:36.639Z,22.47
2023-02-22T13:12:11.801Z,22.73
2023-02-22T13:14:51.322Z,29.00
2023-02-22T13:18:01.660Z,25.80
2023-02-22T13:20:48.507Z,25.53
2023-02-22T13:23:19.255Z,25.90
2023-02-22T13:26:05.188Z,29.20
2023-02-22T13:28:57.963Z,27.53
2023-02-22T13:31:45.894Z,26.37
2023-02-22T13:34:16.626Z,26.23
2023-02-22T13:37:17.733Z,27.30
2023-02-22T13:40:17.231Z,25.47
2023-02-22T13:42:44.281Z,26.27
2023-02-22T13:45:39.417Z,30.40
2023-02-22T13:48:19.675Z,29.40
2023-02-22T13:51:31.202Z,27.43
2023-02-22T13:54:15.077Z,29.73
2023-02-22T13:56:44.465Z,31.23
2023-02-22T13:59:29.556Z,27.93
2023-02-22T14:02:01.223Z,26.20
2023-02-22T14:04:28.349Z,31.47
2023-02-22T14:06:56.647Z,29.77
2023-02-22T14:09:50.517Z,27.63
2023-02-22T14:12:29.206Z,27.23
2023-02-22T14:15:28.215Z,28.87
2023-02-22T14:18:08.496Z,28.90
2023-02-22T14:20:40.404Z,30.03
2023-02-22T14:23:26.105Z,33.57
2023-02-22T14:25:54.024Z,30.17
2023-02-22T14:28:46.235Z,33.87
2023-02-22T14:31:36.110Z,32.33
2023-02-22T14:34:12.528Z,34.57
2023-02-22T14:36:54.603Z,35.10
2023-02-22T14:39:33.122Z,51.37
2023-02-22T14:42:34.516Z,38.27
2023-02-22T14:45:24.846Z,42.73
2023-02-22T14:48:25.432Z,39.83
2023-02-22T14:51:19.071Z,39.00
2023-02-22T14:53:58.091Z,36.23
2023-02-22T14:56:30.135Z,42.67
2023-02-22T14:59:25.198Z,35.63
2023-02-22T15:02:12.942Z,37.27
2023-02-22T15:04:44.146Z,38.37
2023-02-22T15:07:35.840Z,34.80
2023-02-22T15:10:29.934Z,34.70
2023-02-22T15:13:16.099Z,34.10
2023-02-22T15:16:08.110Z,31.63
2023-02-22T15:18:40.782Z,38.53
2023-02-22T15:21:13.469Z,37.00
2023-02-22T15:23:49.711Z,39.53
2023-02-22T15:26:46.448Z,38.03
2023-02-22T15:29:35.071Z,36.83
2023-02-22T15:32:17.858Z,35.03
2023-02-22T15:34:45.124Z,34.50
2023-02-22T15:37:25.250Z,32.50
2023-02-22T15:40:14.430Z,31.37
2023-02-22T15:42:48.815Z,32.13
2023-02-22T15:45:20.218Z,39.03
2023-02-22T15:47:54.418Z,37.80
2023-02-22T15:50:26.035Z,33.87
2023-02-22T15:53:07.968Z,36.13
2023-02-22T15:55:35.047Z,39.27
2023-02-22T15:58:22.357Z,37.40
2023-02-22T16:00:59.152Z,36.63
2023-02-22T16:03:28.733Z,36.23
2023-02-22T16:05:58.498Z,36.50
2023-02-22T16:08:52.662Z,35.00
2023-02-22T16:11:38.456Z,37.93
2023-02-22T16:14:24.056Z,40.20
2023-02-22T16:17:10.754Z,38.50
2023-02-22T16:19:44.774Z,40.00
2023-02-22T16:22:29.135Z,42.00
2023-02-22T16:25:21.621Z,37.37
2023-02-22T16:27:52.685Z,47.60
2023-02-22T16:30:29.671Z,47.13
2023-02-22T16:33:05.525Z,43.47
2023-02-22T16:35:35.487Z,44.70
2023-02-22T16:38:14.823Z,47.43
2023-02-22T16:40:52.443Z,47.97
2023-02-22T16:43:22.886Z,45.17
2023-02-22T16:45:50.049Z,42.93
2023-02-22T16:48:23.536Z,42.67
2023-02-22T16:50:55.821Z,45.30
2023-02-22T16:53:27.903Z,44.70
2023-02-22T16:56:02.120Z,44.87
2023-02-22T16:58:36.351Z,45.17
2023-02-22T17:01:06.498Z,45.40
2023-02-22T17:03:36.108Z,39.90
2023-02-22T17:06:06.321Z,37.40
2023-02-22T17:08:38.267Z,37.07
2023-02-22T17:11:08.629Z,35.77
2023-02-22T17:13:40.365Z,33.83
2023-02-22T17:16:14.275Z,33.10
2023-02-22T17:18:45.966Z,35.00
2023-02-22T17:21:16.789Z,33.80
2023-02-22T17:23:46.804Z,36.90
2023-02-22T17:26:19.771Z,37.73
2023-02-22T17:28:46.966Z,39.03
2023-02-22T17:31:22.035Z,36.70
2023-02-22T17:33:51.561Z,35.20
2023-02-22T17:36:19.031Z,37.20
2023-02-22T17:38:49.912Z,34.03
2023-02-22T17:41:17.064Z,36.60
2023-02-22T17:43:44.391Z,36.37
2023-02-22T17:46:11.562Z,35.27
2023-02-22T17:48:41.068Z,36.73
2023-02-22T17:51:10.682Z,38.47
2023-02-22T17:53:38.783Z,36.13
2023-02-22T17:56:07.482Z,32.90
2023-02-22T17:58:43.511Z,39.60
2023-02-22T18:01:40.335Z,38.03
2023-02-22T18:04:09.866Z,39.90
2023-02-22T18:06:41.680Z,39.33
2023-02-22T18:09:11.249Z,40.63
2023-02-22T18:11:39.530Z,44.27
2023-02-22T18:14:12.275Z,39.53
2023-02-22T18:16:42.485Z,36.53
2023-02-22T18:19:11.794Z,36.87
2023-02-22T18:21:41.216Z,40.03
2023-02-22T18:24:12.988Z,40.23
2023-02-22T18:26:40.151Z,37.10
2023-02-22T18:29:07.697Z,38.77
2023-02-22T18:31:34.880Z,38.30
2023-02-22T18:34:04.558Z,39.40
2023-02-22T18:36:37.022Z,39.07
2023-02-22T18:39:04.408Z,39.20
2023-02-22T18:41:34.578Z,40.20
2023-02-22T18:44:03.225Z,40.97
2023-02-22T18:46:30.776Z,39.90
2023-02-22T18:48:58.439Z,41.23
2023-02-22T18:51:28.301Z,38.43
2023-02-22T18:54:01.579Z,39.90
2023-02-22T18:56:31.244Z,41.50
2023-02-22T18:59:03.582Z,43.37
2023-02-22T19:01:38.647Z,43.33
2023-02-22T19:04:14.355Z,43.43
2023-02-22T19:06:43.135Z,42.97
2023-02-22T19:09:10.313Z,41.80
2023-02-22T19:11:44.721Z,44.47
2023-02-22T19:14:12.233Z,45.33
2023-02-22T19:16:39.953Z,45.00
2023-02-22T19:19:11.773Z,43.57
2023-02-22T19:21:41.487Z,45.90
2023-02-22T19:24:08.574Z,43.70
2023-02-22T19:26:38.451Z,41.90
2023-02-22T19:29:08.479Z,46.80
2023-02-22T19:31:35.827Z,44.77
2023-02-22T19:34:11.409Z,45.53
2023-02-22T19:36:46.342Z,44.77
2023-02-22T19:39:18.928Z,44.77
2023-02-22T19:41:48.812Z,45.73
2023-02-22T19:44:18.489Z,44.53
2023-02-22T19:46:47.596Z,47.53
2023-02-22T19:49:16.148Z,46.87
2023-02-22T19:51:45.806Z,46.13
2023-02-22T19:54:19.495Z,48.53
2023-02-22T19:56:53.845Z,50.60
2023-02-22T19:59:26.133Z,48.47
2023-02-22T20:01:54.730Z,47.70
2023-02-22T20:04:24.770Z,49.40
2023-02-22T20:06:57.564Z,48.13
2023-02-22T20:09:49.682Z,48.90
2023-02-22T20:12:19.210Z,47.00
2023-02-22T20:14:51.264Z,52.27
2023-02-22T20:17:20.994Z,50.97
2023-02-22T20:19:48.895Z,49.63
2023-02-22T20:22:26.315Z,54.23
2023-02-22T20:24:55.900Z,54.33
2023-02-22T20:27:28.276Z,51.53
2023-02-22T20:29:55.342Z,51.83
2023-02-22T20:32:30.313Z,52.70
2023-02-22T20:35:00.298Z,50.93
2023-02-22T20:37:29.932Z,55.07
2023-02-22T20:40:04.163Z,51.90
2023-02-22T20:42:32.645Z,52.60
2023-02-22T20:45:04.834Z,51.50
2023-02-22T20:47:32.446Z,56.40
2023-02-22T20:49:59.615Z,57.13
2023-02-22T20:52:30.997Z,53.93
2023-02-22T20:55:01.864Z,56.80
2023-02-22T20:57:30.818Z,55.40
2023-02-22T20:59:59.084Z,53.37
2023-02-22T21:02:26.235Z,55.77
2023-02-22T21:04:58.402Z,58.70
2023-02-22T21:07:27.806Z,58.47
2023-02-22T21:09:59.737Z,54.10
2023-02-22T21:12:31.320Z,53.07
2023-02-22T21:15:03.319Z,54.57
2023-02-22T21:17:32.621Z,57.03
2023-02-22T21:20:09.141Z,57.47
2023-02-22T21:22:39.427Z,55.93
2023-02-22T21:25:06.798Z,57.93
2023-02-22T21:27:36.178Z,56.47
2023-02-22T21:30:06.616Z,57.50
2023-02-22T21:32:36.144Z,52.23
2023-02-22T21:35:06.335Z,54.27
2023-02-22T21:37:36.233Z,56.27
2023-02-22T21:40:10.351Z,57.77
2023-02-22T21:42:48.968Z,56.73
2023-02-22T21:45:22.860Z,54.90
2023-02-22T21:47:54.694Z,53.13
2023-02-22T21:50:25.497Z,57.63
2023-02-22T21:52:54.900Z,53.27
2023-02-22T21:55:29.818Z,53.23
2023-02-22T21:57:56.992Z,54.07
2023-02-22T22:00:31.081Z,55.13
2023-02-22T22:03:08.928Z,54.57
2023-02-22T22:05:45.216Z,55.13
2023-02-22T22:08:32.044Z,53.60
2023-02-22T22:10:59.189Z,55.50
2023-02-22T22:13:28.867Z,52.27
2023-02-22T22:15:56.095Z,54.00
2023-02-22T22:18:30.848Z,55.40
2023-02-22T22:21:05.055Z,54.33
2023-02-22T22:23:33.225Z,49.83
2023-02-22T22:26:10.852Z,52.90
2023-02-22T22:28:42.123Z,52.43
2023-02-22T22:31:10.915Z,52.50
2023-02-22T22:33:44.284Z,52.37
2023-02-22T22:36:18.410Z,51.77
2023-02-22T22:38:52.628Z,53.03
2023-02-22T22:41:25.215Z,51.87
2023-02-22T22:43:54.445Z,54.00
2023-02-22T22:46:21.917Z,50.20
2023-02-22T22:48:51.356Z,52.67
2023-02-22T22:51:21.970Z,56.37
2023-02-22T22:53:53.018Z,48.67
2023-02-22T22:56:26.506Z,54.30
2023-02-22T22:59:00.852Z,49.80
2023-02-22T23:01:34.192Z,49.70
2023-02-22T23:04:06.552Z,48.90
2023-02-22T23:06:41.719Z,54.63
2023-02-22T23:09:18.648Z,49.80
2023-02-22T23:12:08.477Z,52.93
2023-02-22T23:14:43.958Z,51.63
2023-02-22T23:17:26.795Z,49.73
2023-02-22T23:19:56.313Z,49.93
2023-02-22T23:22:28.455Z,53.23
2023-02-22T23:24:59.891Z,48.43
2023-02-22T23:27:28.040Z,49.57
2023-02-22T23:30:00.068Z,53.03
2023-02-22T23:32:27.272Z,52.00
2023-02-22T23:34:58.840Z,53.03
2023-02-22T23:37:28.452Z,50.87
2023-02-22T23:39:55.628Z,53.10
2023-02-22T23:42:23.100Z,51.83
2023-02-22T23:44:52.985Z,54.63
2023-02-22T23:47:22.674Z,56.83
2023-02-22T23:49:52.229Z,57.17
2023-02-22T23:52:24.528Z,57.57
2023-02-22T23:54:54.052Z,55.57
2023-02-22T23:57:21.337Z,51.40
2023-02-22T23:59:51.399Z,55.13
